sensor_id;sensor_type;location;lat;lon;timestamp;P1;durP1;ratioP1;P2;durP2;ratioP2
10399;SDS011;10031;51.180;17.168;2022-10-16T00:01:06;20.57;;;15.67;;
10399;SDS011;10031;51.180;17.168;2022-10-16T00:03:37;21.10;;;14.47;;
10399;SDS011;10031;51.180;17.168;2022-10-16T00:06:03;17.63;;;13.73;;
10399;SDS011;10031;51.180;17.168;2022-10-16T00:08:30;19.77;;;14.97;;
10399;SDS011;10031;51.180;17.168;2022-10-16T00:11:03;20.77;;;15.57;;
10399;SDS011;10031;51.180;17.168;2022-10-16T00:13:35;22.83;;;16.63;;
10399;SDS011;10031;51.180;17.168;2022-10-16T00:16:03;19.70;;;15.97;;
10399;SDS011;10031;51.180;17.168;2022-10-16T00:18:29;23.77;;;15.77;;
10399;SDS011;10031;51.180;17.168;2022-10-16T00:21:01;23.97;;;16.23;;
10399;SDS011;10031;51.180;17.168;2022-10-16T00:23:31;22.70;;;16.77;;
10399;SDS011;10031;51.180;17.168;2022-10-16T00:25:58;21.27;;;16.03;;
10399;SDS011;10031;51.180;17.168;2022-10-16T00:28:26;21.20;;;14.93;;
10399;SDS011;10031;51.180;17.168;2022-10-16T00:30:52;23.27;;;16.17;;
10399;SDS011;10031;51.180;17.168;2022-10-16T00:33:18;21.77;;;15.70;;
10399;SDS011;10031;51.180;17.168;2022-10-16T00:35:45;20.73;;;15.43;;
10399;SDS011;10031;51.180;17.168;2022-10-16T00:38:11;23.10;;;15.97;;
10399;SDS011;10031;51.180;17.168;2022-10-16T00:40:36;19.50;;;14.47;;
10399;SDS011;10031;51.180;17.168;2022-10-16T00:43:02;20.30;;;15.20;;
10399;SDS011;10031;51.180;17.168;2022-10-16T00:45:28;20.37;;;14.90;;
10399;SDS011;10031;51.180;17.168;2022-10-16T00:47:55;19.33;;;14.27;;
10399;SDS011;10031;51.180;17.168;2022-10-16T00:50:33;17.27;;;13.30;;
10399;SDS011;10031;51.180;17.168;2022-10-16T00:53:00;20.83;;;14.43;;
10399;SDS011;10031;51.180;17.168;2022-10-16T00:55:28;19.90;;;14.30;;
10399;SDS011;10031;51.180;17.168;2022-10-16T00:57:55;20.70;;;14.77;;
10399;SDS011;10031;51.180;17.168;2022-10-16T01:00:24;19.90;;;14.10;;
10399;SDS011;10031;51.180;17.168;2022-10-16T01:02:58;21.67;;;14.63;;
10399;SDS011;10031;51.180;17.168;2022-10-16T01:05:30;20.73;;;15.37;;
10399;SDS011;10031;51.180;17.168;2022-10-16T01:10:31;21.60;;;15.30;;
10399;SDS011;10031;51.180;17.168;2022-10-16T01:13:19;21.33;;;14.97;;
10399;SDS011;10031;51.180;17.168;2022-10-16T01:16:06;19.40;;;13.90;;
10399;SDS011;10031;51.180;17.168;2022-10-16T01:18:45;19.43;;;13.70;;
10399;SDS011;10031;51.180;17.168;2022-10-16T01:21:16;17.43;;;13.43;;
10399;SDS011;10031;51.180;17.168;2022-10-16T01:31:50;18.27;;;12.67;;
10399;SDS011;10031;51.180;17.168;2022-10-16T01:40:30;17.10;;;11.53;;
10399;SDS011;10031;51.180;17.168;2022-10-16T01:42:59;14.00;;;10.77;;
10399;SDS011;10031;51.180;17.168;2022-10-16T01:48:16;10.83;;;8.93;;
10399;SDS011;10031;51.180;17.168;2022-10-16T01:50:44;15.13;;;9.57;;
10399;SDS011;10031;51.180;17.168;2022-10-16T01:53:17;12.23;;;9.60;;
10399;SDS011;10031;51.180;17.168;2022-10-16T01:55:44;14.00;;;10.83;;
10399;SDS011;10031;51.180;17.168;2022-10-16T01:58:13;14.00;;;9.63;;
10399;SDS011;10031;51.180;17.168;2022-10-16T02:00:40;16.17;;;10.03;;
10399;SDS011;10031;51.180;17.168;2022-10-16T02:03:08;14.87;;;11.27;;
10399;SDS011;10031;51.180;17.168;2022-10-16T02:05:39;13.03;;;11.10;;
10399;SDS011;10031;51.180;17.168;2022-10-16T02:08:09;13.30;;;10.23;;
10399;SDS011;10031;51.180;17.168;2022-10-16T02:10:35;12.93;;;9.80;;
10399;SDS011;10031;51.180;17.168;2022-10-16T02:13:13;13.87;;;10.53;;
10399;SDS011;10031;51.180;17.168;2022-10-16T02:15:52;14.13;;;11.00;;
10399;SDS011;10031;51.180;17.168;2022-10-16T02:18:18;15.53;;;11.00;;
10399;SDS011;10031;51.180;17.168;2022-10-16T02:20:50;12.93;;;10.43;;
10399;SDS011;10031;51.180;17.168;2022-10-16T02:23:18;14.77;;;11.23;;
10399;SDS011;10031;51.180;17.168;2022-10-16T02:25:49;14.63;;;11.43;;
10399;SDS011;10031;51.180;17.168;2022-10-16T02:28:19;15.00;;;10.73;;
10399;SDS011;10031;51.180;17.168;2022-10-16T02:30:56;14.70;;;10.70;;
10399;SDS011;10031;51.180;17.168;2022-10-16T02:33:25;13.60;;;10.23;;
10399;SDS011;10031;51.180;17.168;2022-10-16T02:35:51;14.97;;;10.17;;
10399;SDS011;10031;51.180;17.168;2022-10-16T02:38:19;12.03;;;9.57;;
10399;SDS011;10031;51.180;17.168;2022-10-16T02:40:46;12.83;;;9.70;;
10399;SDS011;10031;51.180;17.168;2022-10-16T02:43:12;12.97;;;10.20;;
10399;SDS011;10031;51.180;17.168;2022-10-16T02:45:39;13.53;;;9.43;;
10399;SDS011;10031;51.180;17.168;2022-10-16T02:48:05;13.57;;;9.80;;
10399;SDS011;10031;51.180;17.168;2022-10-16T02:50:31;13.20;;;10.47;;
10399;SDS011;10031;51.180;17.168;2022-10-16T02:52:57;11.77;;;9.97;;
10399;SDS011;10031;51.180;17.168;2022-10-16T02:55:22;12.60;;;9.57;;
10399;SDS011;10031;51.180;17.168;2022-10-16T02:57:48;12.63;;;9.67;;
10399;SDS011;10031;51.180;17.168;2022-10-16T03:00:14;11.30;;;9.43;;
10399;SDS011;10031;51.180;17.168;2022-10-16T03:02:41;14.03;;;10.03;;
10399;SDS011;10031;51.180;17.168;2022-10-16T03:05:07;11.87;;;9.40;;
10399;SDS011;10031;51.180;17.168;2022-10-16T03:07:33;12.67;;;9.63;;
10399;SDS011;10031;51.180;17.168;2022-10-16T03:09:59;13.63;;;10.37;;
10399;SDS011;10031;51.180;17.168;2022-10-16T03:12:26;13.57;;;9.53;;
10399;SDS011;10031;51.180;17.168;2022-10-16T03:14:52;16.87;;;11.13;;
10399;SDS011;10031;51.180;17.168;2022-10-16T03:17:18;14.43;;;11.13;;
10399;SDS011;10031;51.180;17.168;2022-10-16T03:19:44;16.67;;;10.73;;
10399;SDS011;10031;51.180;17.168;2022-10-16T03:22:10;12.70;;;10.00;;
10399;SDS011;10031;51.180;17.168;2022-10-16T03:24:36;14.67;;;11.23;;
10399;SDS011;10031;51.180;17.168;2022-10-16T03:27:02;17.30;;;11.57;;
10399;SDS011;10031;51.180;17.168;2022-10-16T03:29:28;15.47;;;11.10;;
10399;SDS011;10031;51.180;17.168;2022-10-16T03:31:55;12.97;;;10.27;;
10399;SDS011;10031;51.180;17.168;2022-10-16T03:34:21;17.47;;;11.80;;
10399;SDS011;10031;51.180;17.168;2022-10-16T03:36:47;15.63;;;11.63;;
10399;SDS011;10031;51.180;17.168;2022-10-16T03:39:13;15.73;;;12.47;;
10399;SDS011;10031;51.180;17.168;2022-10-16T03:41:39;20.03;;;13.20;;
10399;SDS011;10031;51.180;17.168;2022-10-16T03:44:05;19.23;;;13.20;;
10399;SDS011;10031;51.180;17.168;2022-10-16T03:46:31;20.33;;;13.03;;
10399;SDS011;10031;51.180;17.168;2022-10-16T03:48:56;20.83;;;13.60;;
10399;SDS011;10031;51.180;17.168;2022-10-16T03:51:22;20.33;;;13.57;;
10399;SDS011;10031;51.180;17.168;2022-10-16T03:53:48;18.93;;;13.40;;
10399;SDS011;10031;51.180;17.168;2022-10-16T03:56:13;21.37;;;13.73;;
10399;SDS011;10031;51.180;17.168;2022-10-16T03:58:39;17.60;;;13.17;;
10399;SDS011;10031;51.180;17.168;2022-10-16T04:01:05;18.90;;;13.20;;
10399;SDS011;10031;51.180;17.168;2022-10-16T04:03:32;17.73;;;12.87;;
10399;SDS011;10031;51.180;17.168;2022-10-16T04:05:58;15.43;;;11.97;;
10399;SDS011;10031;51.180;17.168;2022-10-16T04:08:24;16.53;;;10.93;;
10399;SDS011;10031;51.180;17.168;2022-10-16T04:10:49;15.10;;;11.40;;
10399;SDS011;10031;51.180;17.168;2022-10-16T04:13:15;14.70;;;11.80;;
10399;SDS011;10031;51.180;17.168;2022-10-16T04:15:41;13.40;;;10.87;;
10399;SDS011;10031;51.180;17.168;2022-10-16T04:18:07;18.87;;;11.83;;
10399;SDS011;10031;51.180;17.168;2022-10-16T04:20:33;15.97;;;10.13;;
10399;SDS011;10031;51.180;17.168;2022-10-16T04:22:59;12.47;;;10.00;;
10399;SDS011;10031;51.180;17.168;2022-10-16T04:25:25;13.07;;;9.57;;
10399;SDS011;10031;51.180;17.168;2022-10-16T04:27:52;14.03;;;10.17;;
10399;SDS011;10031;51.180;17.168;2022-10-16T04:30:19;12.47;;;10.10;;
10399;SDS011;10031;51.180;17.168;2022-10-16T04:32:48;11.77;;;9.40;;
10399;SDS011;10031;51.180;17.168;2022-10-16T04:35:18;12.40;;;9.97;;
10399;SDS011;10031;51.180;17.168;2022-10-16T04:37:44;13.73;;;10.13;;
10399;SDS011;10031;51.180;17.168;2022-10-16T04:40:10;11.33;;;9.90;;
10399;SDS011;10031;51.180;17.168;2022-10-16T04:42:37;13.30;;;9.70;;
10399;SDS011;10031;51.180;17.168;2022-10-16T04:45:03;14.37;;;10.90;;
10399;SDS011;10031;51.180;17.168;2022-10-16T04:47:30;17.37;;;11.47;;
10399;SDS011;10031;51.180;17.168;2022-10-16T04:49:55;17.57;;;12.87;;
10399;SDS011;10031;51.180;17.168;2022-10-16T04:52:22;18.10;;;13.13;;
10399;SDS011;10031;51.180;17.168;2022-10-16T04:54:49;22.10;;;12.87;;
10399;SDS011;10031;51.180;17.168;2022-10-16T04:57:15;17.90;;;12.80;;
10399;SDS011;10031;51.180;17.168;2022-10-16T04:59:41;19.03;;;14.13;;
10399;SDS011;10031;51.180;17.168;2022-10-16T05:02:07;19.10;;;14.50;;
10399;SDS011;10031;51.180;17.168;2022-10-16T05:04:33;21.73;;;14.27;;
10399;SDS011;10031;51.180;17.168;2022-10-16T05:06:59;20.67;;;14.47;;
10399;SDS011;10031;51.180;17.168;2022-10-16T05:09:25;21.93;;;15.57;;
10399;SDS011;10031;51.180;17.168;2022-10-16T05:11:51;19.83;;;14.47;;
10399;SDS011;10031;51.180;17.168;2022-10-16T05:14:17;18.90;;;13.50;;
10399;SDS011;10031;51.180;17.168;2022-10-16T05:16:43;18.60;;;13.67;;
10399;SDS011;10031;51.180;17.168;2022-10-16T05:19:16;15.83;;;12.90;;
10399;SDS011;10031;51.180;17.168;2022-10-16T05:21:41;19.20;;;13.07;;
10399;SDS011;10031;51.180;17.168;2022-10-16T05:24:07;19.47;;;13.27;;
10399;SDS011;10031;51.180;17.168;2022-10-16T05:26:43;19.93;;;13.40;;
10399;SDS011;10031;51.180;17.168;2022-10-16T05:29:08;23.43;;;14.47;;
10399;SDS011;10031;51.180;17.168;2022-10-16T05:31:34;21.80;;;14.13;;
10399;SDS011;10031;51.180;17.168;2022-10-16T05:34:02;19.97;;;14.03;;
10399;SDS011;10031;51.180;17.168;2022-10-16T05:36:28;20.67;;;14.37;;
10399;SDS011;10031;51.180;17.168;2022-10-16T05:38:54;20.90;;;13.63;;
10399;SDS011;10031;51.180;17.168;2022-10-16T05:41:33;17.23;;;12.67;;
10399;SDS011;10031;51.180;17.168;2022-10-16T05:43:58;19.30;;;13.50;;
10399;SDS011;10031;51.180;17.168;2022-10-16T05:46:24;19.33;;;14.23;;
10399;SDS011;10031;51.180;17.168;2022-10-16T05:48:53;21.47;;;14.33;;
10399;SDS011;10031;51.180;17.168;2022-10-16T05:53:48;20.83;;;14.57;;
10399;SDS011;10031;51.180;17.168;2022-10-16T05:56:14;21.33;;;15.00;;
10399;SDS011;10031;51.180;17.168;2022-10-16T05:58:41;20.27;;;14.77;;
10399;SDS011;10031;51.180;17.168;2022-10-16T06:01:11;19.37;;;13.57;;
10399;SDS011;10031;51.180;17.168;2022-10-16T06:03:41;18.73;;;13.33;;
10399;SDS011;10031;51.180;17.168;2022-10-16T06:06:14;20.73;;;14.10;;
10399;SDS011;10031;51.180;17.168;2022-10-16T06:08:41;20.70;;;14.20;;
10399;SDS011;10031;51.180;17.168;2022-10-16T06:11:08;21.33;;;13.80;;
10399;SDS011;10031;51.180;17.168;2022-10-16T06:13:35;18.07;;;13.40;;
10399;SDS011;10031;51.180;17.168;2022-10-16T06:16:01;18.47;;;13.97;;
10399;SDS011;10031;51.180;17.168;2022-10-16T06:18:31;18.80;;;13.43;;
10399;SDS011;10031;51.180;17.168;2022-10-16T06:20:57;20.17;;;13.83;;
10399;SDS011;10031;51.180;17.168;2022-10-16T06:23:24;18.23;;;13.63;;
10399;SDS011;10031;51.180;17.168;2022-10-16T06:25:50;18.43;;;13.47;;
10399;SDS011;10031;51.180;17.168;2022-10-16T06:28:16;19.20;;;13.73;;
10399;SDS011;10031;51.180;17.168;2022-10-16T06:30:43;16.43;;;12.33;;
10399;SDS011;10031;51.180;17.168;2022-10-16T06:33:09;17.97;;;12.73;;
10399;SDS011;10031;51.180;17.168;2022-10-16T06:35:35;15.80;;;12.03;;
10399;SDS011;10031;51.180;17.168;2022-10-16T06:38:01;17.20;;;13.27;;
10399;SDS011;10031;51.180;17.168;2022-10-16T06:40:27;15.43;;;12.30;;
10399;SDS011;10031;51.180;17.168;2022-10-16T06:42:54;17.90;;;12.90;;
10399;SDS011;10031;51.180;17.168;2022-10-16T06:45:20;16.53;;;12.90;;
10399;SDS011;10031;51.180;17.168;2022-10-16T06:47:46;17.27;;;12.90;;
10399;SDS011;10031;51.180;17.168;2022-10-16T06:50:13;16.67;;;13.27;;
10399;SDS011;10031;51.180;17.168;2022-10-16T06:52:39;16.77;;;13.20;;
10399;SDS011;10031;51.180;17.168;2022-10-16T06:55:12;20.85;;;14.23;;
10399;SDS011;10031;51.180;17.168;2022-10-16T06:57:38;19.40;;;13.87;;
10399;SDS011;10031;51.180;17.168;2022-10-16T07:00:04;17.10;;;13.03;;
10399;SDS011;10031;51.180;17.168;2022-10-16T07:02:30;15.88;;;12.18;;
10399;SDS011;10031;51.180;17.168;2022-10-16T07:04:56;18.00;;;12.57;;
10399;SDS011;10031;51.180;17.168;2022-10-16T07:07:22;18.20;;;10.95;;
10399;SDS011;10031;51.180;17.168;2022-10-16T07:09:52;15.18;;;10.85;;
10399;SDS011;10031;51.180;17.168;2022-10-16T07:12:19;16.48;;;10.30;;
10399;SDS011;10031;51.180;17.168;2022-10-16T07:14:45;14.82;;;10.95;;
10399;SDS011;10031;51.180;17.168;2022-10-16T07:17:10;14.15;;;9.95;;
10399;SDS011;10031;51.180;17.168;2022-10-16T07:19:36;12.70;;;10.30;;
10399;SDS011;10031;51.180;17.168;2022-10-16T07:22:02;12.05;;;9.98;;
10399;SDS011;10031;51.180;17.168;2022-10-16T07:24:28;11.68;;;9.10;;
10399;SDS011;10031;51.180;17.168;2022-10-16T07:26:53;12.88;;;9.07;;
10399;SDS011;10031;51.180;17.168;2022-10-16T07:29:23;15.30;;;10.00;;
10399;SDS011;10031;51.180;17.168;2022-10-16T07:31:49;14.73;;;10.18;;
10399;SDS011;10031;51.180;17.168;2022-10-16T07:34:16;11.02;;;8.95;;
10399;SDS011;10031;51.180;17.168;2022-10-16T07:36:43;10.02;;;8.30;;
10399;SDS011;10031;51.180;17.168;2022-10-16T07:39:09;9.85;;;8.45;;
10399;SDS011;10031;51.180;17.168;2022-10-16T07:41:34;11.75;;;9.30;;
10399;SDS011;10031;51.180;17.168;2022-10-16T07:44:01;12.27;;;8.40;;
10399;SDS011;10031;51.180;17.168;2022-10-16T07:46:27;12.43;;;8.68;;
10399;SDS011;10031;51.180;17.168;2022-10-16T07:48:54;9.73;;;8.35;;
10399;SDS011;10031;51.180;17.168;2022-10-16T07:51:20;10.30;;;7.57;;
10399;SDS011;10031;51.180;17.168;2022-10-16T07:53:48;9.98;;;7.57;;
10399;SDS011;10031;51.180;17.168;2022-10-16T07:56:19;9.63;;;7.00;;
10399;SDS011;10031;51.180;17.168;2022-10-16T07:58:46;8.85;;;7.15;;
10399;SDS011;10031;51.180;17.168;2022-10-16T08:01:14;8.00;;;6.78;;
10399;SDS011;10031;51.180;17.168;2022-10-16T08:03:45;8.18;;;6.05;;
10399;SDS011;10031;51.180;17.168;2022-10-16T08:06:12;9.02;;;6.53;;
10399;SDS011;10031;51.180;17.168;2022-10-16T08:08:38;7.60;;;6.55;;
10399;SDS011;10031;51.180;17.168;2022-10-16T08:11:05;7.18;;;6.07;;
10399;SDS011;10031;51.180;17.168;2022-10-16T08:13:30;7.70;;;6.53;;
10399;SDS011;10031;51.180;17.168;2022-10-16T08:15:56;7.70;;;6.25;;
10399;SDS011;10031;51.180;17.168;2022-10-16T08:18:22;7.97;;;6.75;;
10399;SDS011;10031;51.180;17.168;2022-10-16T08:20:54;8.02;;;6.25;;
10399;SDS011;10031;51.180;17.168;2022-10-16T08:23:21;9.63;;;6.50;;
10399;SDS011;10031;51.180;17.168;2022-10-16T08:25:47;9.77;;;6.78;;
10399;SDS011;10031;51.180;17.168;2022-10-16T08:28:13;7.47;;;6.20;;
10399;SDS011;10031;51.180;17.168;2022-10-16T08:30:39;7.22;;;6.53;;
10399;SDS011;10031;51.180;17.168;2022-10-16T08:33:05;6.53;;;5.93;;
10399;SDS011;10031;51.180;17.168;2022-10-16T08:35:31;7.15;;;6.28;;
10399;SDS011;10031;51.180;17.168;2022-10-16T08:37:57;7.07;;;6.35;;
10399;SDS011;10031;51.180;17.168;2022-10-16T08:40:29;7.75;;;5.93;;
10399;SDS011;10031;51.180;17.168;2022-10-16T08:43:13;8.23;;;6.15;;
10399;SDS011;10031;51.180;17.168;2022-10-16T08:48:45;7.40;;;5.80;;
10399;SDS011;10031;51.180;17.168;2022-10-16T08:51:20;8.02;;;6.15;;
10399;SDS011;10031;51.180;17.168;2022-10-16T08:53:58;8.77;;;6.10;;
10399;SDS011;10031;51.180;17.168;2022-10-16T08:56:28;7.80;;;6.70;;
10399;SDS011;10031;51.180;17.168;2022-10-16T08:58:59;7.00;;;6.13;;
10399;SDS011;10031;51.180;17.168;2022-10-16T09:01:32;7.25;;;5.78;;
10399;SDS011;10031;51.180;17.168;2022-10-16T09:07:24;7.15;;;5.38;;
10399;SDS011;10031;51.180;17.168;2022-10-16T09:16:18;6.65;;;5.00;;
10399;SDS011;10031;51.180;17.168;2022-10-16T09:21:33;7.05;;;5.40;;
10399;SDS011;10031;51.180;17.168;2022-10-16T09:27:01;6.97;;;5.65;;
10399;SDS011;10031;51.180;17.168;2022-10-16T09:29:27;6.35;;;5.10;;
10399;SDS011;10031;51.180;17.168;2022-10-16T09:34:49;6.68;;;5.20;;
10399;SDS011;10031;51.180;17.168;2022-10-16T09:37:23;8.70;;;4.55;;
10399;SDS011;10031;51.180;17.168;2022-10-16T09:39:54;9.82;;;5.03;;
10399;SDS011;10031;51.180;17.168;2022-10-16T09:42:34;8.45;;;5.10;;
10399;SDS011;10031;51.180;17.168;2022-10-16T09:45:01;8.23;;;5.35;;
10399;SDS011;10031;51.180;17.168;2022-10-16T09:47:35;7.18;;;5.22;;
10399;SDS011;10031;51.180;17.168;2022-10-16T09:50:28;7.03;;;5.10;;
10399;SDS011;10031;51.180;17.168;2022-10-16T09:53:04;6.55;;;5.30;;
10399;SDS011;10031;51.180;17.168;2022-10-16T09:55:35;6.72;;;5.32;;
10399;SDS011;10031;51.180;17.168;2022-10-16T09:58:01;6.95;;;5.70;;
10399;SDS011;10031;51.180;17.168;2022-10-16T10:00:26;6.30;;;5.70;;
10399;SDS011;10031;51.180;17.168;2022-10-16T10:02:57;6.75;;;5.70;;
10399;SDS011;10031;51.180;17.168;2022-10-16T10:05:27;6.65;;;5.40;;
10399;SDS011;10031;51.180;17.168;2022-10-16T10:07:55;9.38;;;5.60;;
10399;SDS011;10031;51.180;17.168;2022-10-16T10:10:32;6.60;;;4.93;;
10399;SDS011;10031;51.180;17.168;2022-10-16T10:13:14;6.88;;;5.13;;
10399;SDS011;10031;51.180;17.168;2022-10-16T10:15:44;8.88;;;4.72;;
10399;SDS011;10031;51.180;17.168;2022-10-16T10:18:20;5.90;;;4.72;;
10399;SDS011;10031;51.180;17.168;2022-10-16T10:21:01;6.70;;;4.47;;
10399;SDS011;10031;51.180;17.168;2022-10-16T10:23:30;5.30;;;4.80;;
10399;SDS011;10031;51.180;17.168;2022-10-16T10:26:16;4.90;;;4.40;;
10399;SDS011;10031;51.180;17.168;2022-10-16T10:28:56;6.07;;;4.10;;
10399;SDS011;10031;51.180;17.168;2022-10-16T10:31:45;4.25;;;3.85;;
10399;SDS011;10031;51.180;17.168;2022-10-16T10:34:34;4.25;;;3.67;;
10399;SDS011;10031;51.180;17.168;2022-10-16T10:37:33;6.35;;;3.88;;
10399;SDS011;10031;51.180;17.168;2022-10-16T10:51:11;4.43;;;2.60;;
10399;SDS011;10031;51.180;17.168;2022-10-16T10:54:10;2.70;;;2.50;;
10399;SDS011;10031;51.180;17.168;2022-10-16T10:59:55;3.20;;;2.90;;
10399;SDS011;10031;51.180;17.168;2022-10-16T11:08:04;2.85;;;2.65;;
10399;SDS011;10031;51.180;17.168;2022-10-16T11:16:02;2.92;;;2.63;;
10399;SDS011;10031;51.180;17.168;2022-10-16T11:18:45;2.47;;;2.28;;
10399;SDS011;10031;51.180;17.168;2022-10-16T11:21:37;3.05;;;2.53;;
10399;SDS011;10031;51.180;17.168;2022-10-16T11:24:23;2.50;;;2.30;;
10399;SDS011;10031;51.180;17.168;2022-10-16T11:27:17;2.95;;;2.45;;
10399;SDS011;10031;51.180;17.168;2022-10-16T11:30:02;2.47;;;2.25;;
10399;SDS011;10031;51.180;17.168;2022-10-16T11:32:32;2.50;;;2.30;;
10399;SDS011;10031;51.180;17.168;2022-10-16T11:35:10;3.90;;;2.50;;
10399;SDS011;10031;51.180;17.168;2022-10-16T11:37:44;2.47;;;1.98;;
10399;SDS011;10031;51.180;17.168;2022-10-16T11:40:19;2.35;;;2.15;;
10399;SDS011;10031;51.180;17.168;2022-10-16T11:43:10;2.53;;;2.10;;
10399;SDS011;10031;51.180;17.168;2022-10-16T11:45:46;2.63;;;2.10;;
10399;SDS011;10031;51.180;17.168;2022-10-16T11:51:17;2.88;;;2.00;;
10399;SDS011;10031;51.180;17.168;2022-10-16T12:00:15;2.65;;;2.42;;
10399;SDS011;10031;51.180;17.168;2022-10-16T12:02:54;3.47;;;2.30;;
10399;SDS011;10031;51.180;17.168;2022-10-16T12:05:28;4.45;;;2.40;;
10399;SDS011;10031;51.180;17.168;2022-10-16T12:08:09;2.47;;;2.28;;
10399;SDS011;10031;51.180;17.168;2022-10-16T12:10:37;2.88;;;2.65;;
10399;SDS011;10031;51.180;17.168;2022-10-16T12:13:28;3.85;;;2.65;;
10399;SDS011;10031;51.180;17.168;2022-10-16T12:18:31;3.50;;;2.78;;
10399;SDS011;10031;51.180;17.168;2022-10-16T12:20:58;3.33;;;3.03;;
10399;SDS011;10031;51.180;17.168;2022-10-16T12:23:29;6.32;;;2.85;;
10399;SDS011;10031;51.180;17.168;2022-10-16T12:25:56;4.03;;;3.42;;
10399;SDS011;10031;51.180;17.168;2022-10-16T12:28:27;4.00;;;3.53;;
10399;SDS011;10031;51.180;17.168;2022-10-16T12:31:01;4.60;;;3.83;;
10399;SDS011;10031;51.180;17.168;2022-10-16T12:33:39;5.90;;;3.60;;
10399;SDS011;10031;51.180;17.168;2022-10-16T12:36:14;6.20;;;4.00;;
10399;SDS011;10031;51.180;17.168;2022-10-16T12:38:51;6.70;;;4.20;;
10399;SDS011;10031;51.180;17.168;2022-10-16T12:43:54;4.55;;;4.13;;
10399;SDS011;10031;51.180;17.168;2022-10-16T12:46:23;4.95;;;4.40;;
10399;SDS011;10031;51.180;17.168;2022-10-16T12:51:39;5.88;;;4.55;;
10399;SDS011;10031;51.180;17.168;2022-10-16T12:54:17;7.25;;;4.63;;
10399;SDS011;10031;51.180;17.168;2022-10-16T12:59:35;6.00;;;4.68;;
10399;SDS011;10031;51.180;17.168;2022-10-16T13:18:23;5.40;;;4.90;;
10399;SDS011;10031;51.180;17.168;2022-10-16T13:24:15;5.88;;;5.22;;
10399;SDS011;10031;51.180;17.168;2022-10-16T13:29:42;8.02;;;6.05;;
10399;SDS011;10031;51.180;17.168;2022-10-16T13:32:09;10.77;;;5.93;;
10399;SDS011;10031;51.180;17.168;2022-10-16T13:34:43;8.32;;;5.72;;
10399;SDS011;10031;51.180;17.168;2022-10-16T13:37:21;8.60;;;5.60;;
10399;SDS011;10031;51.180;17.168;2022-10-16T13:39:48;6.95;;;4.97;;
10399;SDS011;10031;51.180;17.168;2022-10-16T13:42:26;6.18;;;5.57;;
10399;SDS011;10031;51.180;17.168;2022-10-16T13:44:53;6.07;;;5.47;;
10399;SDS011;10031;51.180;17.168;2022-10-16T13:47:22;7.00;;;6.30;;
10399;SDS011;10031;51.180;17.168;2022-10-16T13:50:03;6.80;;;6.10;;
10399;SDS011;10031;51.180;17.168;2022-10-16T13:52:31;7.72;;;6.13;;
10399;SDS011;10031;51.180;17.168;2022-10-16T13:54:57;6.60;;;5.90;;
10399;SDS011;10031;51.180;17.168;2022-10-16T13:57:24;8.77;;;6.40;;
10399;SDS011;10031;51.180;17.168;2022-10-16T13:59:53;8.25;;;6.55;;
10399;SDS011;10031;51.180;17.168;2022-10-16T14:05:08;7.30;;;5.72;;
10399;SDS011;10031;51.180;17.168;2022-10-16T14:10:22;7.45;;;6.45;;
10399;SDS011;10031;51.180;17.168;2022-10-16T14:13:03;7.22;;;6.50;;
10399;SDS011;10031;51.180;17.168;2022-10-16T14:15:32;7.72;;;5.90;;
10399;SDS011;10031;51.180;17.168;2022-10-16T14:18:00;9.20;;;6.13;;
10399;SDS011;10031;51.180;17.168;2022-10-16T14:20:27;6.43;;;5.65;;
10399;SDS011;10031;51.180;17.168;2022-10-16T14:23:39;10.32;;;6.90;;
10399;SDS011;10031;51.180;17.168;2022-10-16T14:25:48;8.15;;;5.80;;
10399;SDS011;10031;51.180;17.168;2022-10-16T14:30:49;7.75;;;6.05;;
10399;SDS011;10031;51.180;17.168;2022-10-16T14:38:36;6.85;;;6.15;;
10399;SDS011;10031;51.180;17.168;2022-10-16T14:41:07;8.90;;;6.78;;
10399;SDS011;10031;51.180;17.168;2022-10-16T14:43:33;9.93;;;6.45;;
10399;SDS011;10031;51.180;17.168;2022-10-16T14:45:59;6.70;;;5.70;;
10399;SDS011;10031;51.180;17.168;2022-10-16T14:48:28;7.28;;;6.45;;
10399;SDS011;10031;51.180;17.168;2022-10-16T14:50:54;9.73;;;6.22;;
10399;SDS011;10031;51.180;17.168;2022-10-16T14:53:20;9.55;;;6.18;;
10399;SDS011;10031;51.180;17.168;2022-10-16T14:55:46;7.88;;;5.53;;
10399;SDS011;10031;51.180;17.168;2022-10-16T14:58:17;8.63;;;5.63;;
10399;SDS011;10031;51.180;17.168;2022-10-16T15:00:45;8.93;;;5.70;;
10399;SDS011;10031;51.180;17.168;2022-10-16T15:03:11;11.27;;;7.85;;
10399;SDS011;10031;51.180;17.168;2022-10-16T15:05:36;12.20;;;8.63;;
10399;SDS011;10031;51.180;17.168;2022-10-16T15:08:02;11.63;;;8.85;;
10399;SDS011;10031;51.180;17.168;2022-10-16T15:10:29;11.50;;;9.10;;
10399;SDS011;10031;51.180;17.168;2022-10-16T15:12:58;10.57;;;8.57;;
10399;SDS011;10031;51.180;17.168;2022-10-16T15:15:30;12.60;;;8.38;;
10399;SDS011;10031;51.180;17.168;2022-10-16T15:18:06;10.15;;;8.35;;
10399;SDS011;10031;51.180;17.168;2022-10-16T15:20:33;10.32;;;8.02;;
10399;SDS011;10031;51.180;17.168;2022-10-16T15:23:10;12.05;;;7.65;;
10399;SDS011;10031;51.180;17.168;2022-10-16T15:28:13;9.82;;;7.68;;
10399;SDS011;10031;51.180;17.168;2022-10-16T15:30:40;11.48;;;7.55;;
10399;SDS011;10031;51.180;17.168;2022-10-16T15:33:09;10.77;;;7.60;;
10399;SDS011;10031;51.180;17.168;2022-10-16T15:35:39;11.43;;;8.98;;
10399;SDS011;10031;51.180;17.168;2022-10-16T15:38:04;12.90;;;9.30;;
10399;SDS011;10031;51.180;17.168;2022-10-16T15:40:32;11.50;;;9.63;;
10399;SDS011;10031;51.180;17.168;2022-10-16T15:43:00;23.50;;;14.82;;
10399;SDS011;10031;51.180;17.168;2022-10-16T15:45:26;22.27;;;14.23;;
10399;SDS011;10031;51.180;17.168;2022-10-16T15:47:55;25.48;;;16.20;;
10399;SDS011;10031;51.180;17.168;2022-10-16T15:50:20;21.98;;;14.93;;
10399;SDS011;10031;51.180;17.168;2022-10-16T15:52:46;16.77;;;13.10;;
10399;SDS011;10031;51.180;17.168;2022-10-16T15:55:12;16.88;;;13.18;;
10399;SDS011;10031;51.180;17.168;2022-10-16T15:57:39;15.57;;;12.32;;
10399;SDS011;10031;51.180;17.168;2022-10-16T16:00:08;21.27;;;13.65;;
10399;SDS011;10031;51.180;17.168;2022-10-16T16:02:37;17.35;;;12.23;;
10399;SDS011;10031;51.180;17.168;2022-10-16T16:05:03;18.92;;;12.70;;
10399;SDS011;10031;51.180;17.168;2022-10-16T16:07:32;18.45;;;12.25;;
10399;SDS011;10031;51.180;17.168;2022-10-16T16:09:59;15.40;;;11.45;;
10399;SDS011;10031;51.180;17.168;2022-10-16T16:12:25;17.75;;;11.30;;
10399;SDS011;10031;51.180;17.168;2022-10-16T16:14:50;16.77;;;11.68;;
10399;SDS011;10031;51.180;17.168;2022-10-16T16:17:17;16.17;;;12.07;;
10399;SDS011;10031;51.180;17.168;2022-10-16T16:19:45;17.35;;;11.65;;
10399;SDS011;10031;51.180;17.168;2022-10-16T16:22:10;17.25;;;12.02;;
10399;SDS011;10031;51.180;17.168;2022-10-16T16:24:36;13.80;;;11.07;;
10399;SDS011;10031;51.180;17.168;2022-10-16T16:27:02;16.33;;;11.40;;
10399;SDS011;10031;51.180;17.168;2022-10-16T16:29:28;16.80;;;12.52;;
10399;SDS011;10031;51.180;17.168;2022-10-16T16:31:54;16.65;;;12.77;;
10399;SDS011;10031;51.180;17.168;2022-10-16T16:34:28;21.85;;;14.23;;
10399;SDS011;10031;51.180;17.168;2022-10-16T16:36:54;21.58;;;15.55;;
10399;SDS011;10031;51.180;17.168;2022-10-16T16:39:21;22.38;;;14.60;;
10399;SDS011;10031;51.180;17.168;2022-10-16T16:41:47;22.05;;;15.68;;